createdAt,value
2023-02-27T00:00:14.969Z,94855.50
2023-02-27T00:03:01.185Z,94831.84
2023-02-27T00:05:47.160Z,94850.59
2023-02-27T00:08:33.039Z,94840.84
2023-02-27T00:11:18.842Z,94827.19
2023-02-27T00:14:04.905Z,94805.25
2023-02-27T00:16:51.019Z,94847.38
2023-02-27T00:19:36.993Z,94838.25
2023-02-27T00:22:22.775Z,94848.47
2023-02-27T00:25:09.227Z,94841.31
2023-02-27T00:27:56.893Z,94836.53
2023-02-27T00:30:43.038Z,94847.16
2023-02-27T00:33:28.652Z,94854.31
2023-02-27T00:36:14.597Z,94865.38
2023-02-27T00:39:00.400Z,94869.84
2023-02-27T00:41:46.239Z,94870.78
2023-02-27T00:44:32.242Z,94882.13
2023-02-27T00:47:18.061Z,94884.34
2023-02-27T00:50:04.381Z,94892.47
2023-02-27T00:52:50.412Z,94885.78
2023-02-27T00:55:36.226Z,94877.09
2023-02-27T00:58:22.073Z,94891.31
2023-02-27T01:01:07.892Z,94893.41
2023-02-27T01:03:53.830Z,94880.66
2023-02-27T01:06:39.696Z,94905.16
2023-02-27T01:09:25.361Z,94899.84
2023-02-27T01:12:11.254Z,94899.31
2023-02-27T01:14:57.193Z,94897.53
2023-02-27T01:17:43.372Z,94911.47
2023-02-27T01:20:29.573Z,94908.41
2023-02-27T01:23:15.286Z,94914.72
2023-02-27T01:26:01.692Z,94920.88
2023-02-27T01:28:47.635Z,94910.81
2023-02-27T01:31:33.869Z,94931.69
2023-02-27T01:34:19.730Z,94936.34
2023-02-27T01:37:05.554Z,94944.00
2023-02-27T01:39:51.249Z,94961.44
2023-02-27T01:42:37.154Z,94979.88
2023-02-27T01:45:30.675Z,94971.25
2023-02-27T01:48:27.145Z,94966.63
2023-02-27T01:51:19.609Z,94974.25
2023-02-27T01:54:07.464Z,94982.72
2023-02-27T01:56:53.805Z,94997.00
2023-02-27T01:59:41.658Z,95018.56
2023-02-27T02:02:33.626Z,95028.38
2023-02-27T02:05:20.922Z,95038.50
2023-02-27T02:08:06.892Z,95045.13
2023-02-27T02:10:54.031Z,95054.47
2023-02-27T02:13:40.707Z,95059.09
2023-02-27T02:16:33.129Z,95063.25
2023-02-27T02:19:49.973Z,95070.09
2023-02-27T02:23:06.972Z,95093.50
2023-02-27T02:25:57.526Z,95103.13
2023-02-27T02:28:52.441Z,95095.84
2023-02-27T02:31:56.720Z,95094.28
2023-02-27T02:35:00.509Z,95114.25
2023-02-27T02:38:23.715Z,95112.50
2023-02-27T02:41:22.534Z,95115.09
2023-02-27T02:44:30.102Z,95129.91
2023-02-27T02:47:51.319Z,95135.19
2023-02-27T02:50:52.189Z,95125.91
2023-02-27T02:53:48.367Z,95146.94
2023-02-27T02:56:39.997Z,95151.56
2023-02-27T02:59:58.550Z,95164.97
2023-02-27T03:02:49.208Z,95170.66
2023-02-27T03:05:38.521Z,95182.25
2023-02-27T03:08:28.013Z,95180.91
2023-02-27T03:11:14.504Z,95162.00
2023-02-27T03:14:23.223Z,95185.59
2023-02-27T03:17:14.576Z,95194.69
2023-02-27T03:20:05.187Z,95186.91
2023-02-27T03:22:54.377Z,95195.19
2023-02-27T03:25:40.969Z,95204.50
2023-02-27T03:28:30.069Z,95216.44
2023-02-27T03:31:46.796Z,95230.97
2023-02-27T03:34:38.713Z,95230.91
2023-02-27T03:37:41.712Z,95206.38
2023-02-27T03:40:35.337Z,95237.75
2023-02-27T03:43:41.854Z,95257.19
2023-02-27T03:46:28.306Z,95262.31
2023-02-27T03:49:14.725Z,95267.31
2023-02-27T03:52:00.478Z,95274.97
2023-02-27T03:54:51.719Z,95258.50
2023-02-27T03:57:38.478Z,95272.31
2023-02-27T04:00:25.371Z,95266.97
2023-02-27T04:03:11.404Z,95258.31
2023-02-27T04:06:17.334Z,95259.81
2023-02-27T04:09:08.781Z,95265.63
2023-02-27T04:12:04.954Z,95247.34
2023-02-27T04:15:10.805Z,95262.28
2023-02-27T04:18:20.250Z,95274.44
2023-02-27T04:21:10.627Z,95268.41
2023-02-27T04:24:04.636Z,95280.06
2023-02-27T04:26:55.625Z,95276.72
2023-02-27T04:29:54.432Z,95288.56
2023-02-27T04:33:11.600Z,95300.72
2023-02-27T04:36:07.286Z,95309.97
2023-02-27T04:39:09.602Z,95321.63
2023-02-27T04:42:02.521Z,95318.81
2023-02-27T04:44:49.140Z,95328.91
2023-02-27T04:47:48.037Z,95324.13
2023-02-27T04:50:47.781Z,95342.06
2023-02-27T04:53:45.704Z,95343.88
2023-02-27T04:56:35.419Z,95352.69
2023-02-27T04:59:28.023Z,95353.03
2023-02-27T05:02:44.336Z,95358.34
2023-02-27T05:05:33.408Z,95352.00
2023-02-27T05:08:37.146Z,95353.53
2023-02-27T05:11:25.111Z,95375.63
2023-02-27T05:14:13.220Z,95379.94
2023-02-27T05:17:05.156Z,95396.75
2023-02-27T05:19:51.510Z,95399.56
2023-02-27T05:22:59.511Z,95399.91
2023-02-27T05:26:17.487Z,95398.41
2023-02-27T05:29:15.476Z,95399.75
2023-02-27T05:32:42.102Z,95417.19
2023-02-27T05:35:38.679Z,95424.50
2023-02-27T05:38:31.968Z,95400.91
2023-02-27T05:41:31.501Z,95406.06
2023-02-27T05:44:20.979Z,95434.47
2023-02-27T05:47:17.489Z,95421.19
2023-02-27T05:50:07.939Z,95450.56
2023-02-27T05:52:54.954Z,95437.13
2023-02-27T05:55:43.754Z,95446.78
2023-02-27T05:58:33.524Z,95456.59
2023-02-27T06:01:19.588Z,95451.75
2023-02-27T06:04:05.404Z,95442.97
2023-02-27T06:06:52.050Z,95457.09
2023-02-27T06:09:38.415Z,95445.59
2023-02-27T06:12:25.395Z,95449.75
2023-02-27T06:15:12.488Z,95453.75
2023-02-27T06:17:58.293Z,95462.53
2023-02-27T06:20:45.081Z,95472.53
2023-02-27T06:23:31.375Z,95480.31
2023-02-27T06:26:17.986Z,95486.47
2023-02-27T06:29:03.908Z,95469.88
2023-02-27T06:31:49.785Z,95476.50
2023-02-27T06:34:35.705Z,95484.47
2023-02-27T06:37:22.392Z,95497.13
2023-02-27T06:40:12.031Z,95495.44
2023-02-27T06:42:58.145Z,95466.00
2023-02-27T06:45:48.793Z,95490.63
2023-02-27T06:48:35.057Z,95489.63
2023-02-27T06:51:20.800Z,95504.25
2023-02-27T06:54:06.769Z,95486.31
2023-02-27T06:56:52.589Z,95503.59
2023-02-27T06:59:38.442Z,95487.97
2023-02-27T07:02:25.670Z,95492.13
2023-02-27T07:05:12.195Z,95506.91
2023-02-27T07:07:58.700Z,95503.09
2023-02-27T07:10:47.242Z,95503.06
2023-02-27T07:13:33.294Z,95515.88
2023-02-27T07:16:19.130Z,95516.91
2023-02-27T07:19:04.971Z,95522.22
2023-02-27T07:21:51.111Z,95512.72
2023-02-27T07:24:37.027Z,95519.72
2023-02-27T07:27:23.198Z,95503.44
2023-02-27T07:30:09.477Z,95503.28
2023-02-27T07:32:55.304Z,95494.97
2023-02-27T07:35:41.278Z,95511.25
2023-02-27T07:38:28.943Z,95505.94
2023-02-27T07:41:29.580Z,95511.94
2023-02-27T07:44:19.038Z,95490.97
2023-02-27T07:47:04.780Z,95512.56
2023-02-27T07:49:50.642Z,95514.91
2023-02-27T07:52:36.525Z,95512.94
2023-02-27T07:55:22.485Z,95515.25
2023-02-27T07:58:08.458Z,95513.06
2023-02-27T08:00:54.669Z,95520.56
2023-02-27T08:03:40.541Z,95502.59
2023-02-27T08:06:26.688Z,95528.22
2023-02-27T08:09:12.820Z,95525.56
2023-02-27T08:11:59.002Z,95507.94
2023-02-27T08:14:45.158Z,95518.91
2023-02-27T08:17:31.058Z,95515.25
2023-02-27T08:20:17.151Z,95512.06
2023-02-27T08:23:03.200Z,95524.72
2023-02-27T08:25:49.230Z,95506.59
2023-02-27T08:28:35.424Z,95521.56
2023-02-27T08:31:21.211Z,95526.06
2023-02-27T08:34:10.611Z,95538.69
2023-02-27T08:36:56.800Z,95537.03
2023-02-27T08:39:42.537Z,95555.31
2023-02-27T08:42:28.627Z,95545.84
2023-02-27T08:45:14.907Z,95555.16
2023-02-27T08:48:00.732Z,95555.66
2023-02-27T08:50:47.324Z,95564.47
2023-02-27T08:53:33.558Z,95568.78
2023-02-27T08:56:19.349Z,95555.34
2023-02-27T08:59:05.257Z,95565.13
2023-02-27T09:01:51.137Z,95576.78
2023-02-27T09:04:36.946Z,95563.66
2023-02-27T09:07:22.961Z,95559.47
2023-02-27T09:10:09.956Z,95572.44
2023-02-27T09:12:56.060Z,95566.78
2023-02-27T09:15:41.869Z,95577.25
2023-02-27T09:18:27.681Z,95567.25
2023-02-27T09:21:13.879Z,95564.44
2023-02-27T09:24:07.391Z,95564.91
2023-02-27T09:27:03.674Z,95578.22
2023-02-27T09:29:55.492Z,95589.88
2023-02-27T09:32:41.343Z,95574.06
2023-02-27T09:35:27.380Z,95583.06
2023-02-27T09:38:13.801Z,95583.19
2023-02-27T09:40:59.708Z,95569.91
2023-02-27T09:43:48.331Z,95591.69
2023-02-27T09:46:35.375Z,95604.22
2023-02-27T09:49:24.975Z,95611.34
2023-02-27T09:52:13.591Z,95570.41
2023-02-27T09:54:59.580Z,95611.13
2023-02-27T09:58:22.445Z,95620.97
2023-02-27T10:01:33.737Z,95625.13
2023-02-27T10:04:27.517Z,95600.69
2023-02-27T10:07:38.746Z,95614.63
2023-02-27T10:10:24.780Z,95619.09
2023-02-27T10:13:40.829Z,95614.31
2023-02-27T10:16:28.100Z,95604.97
2023-02-27T10:19:17.457Z,95607.28
2023-02-27T10:22:05.814Z,95611.28
2023-02-27T10:24:57.436Z,95612.44
2023-02-27T10:27:49.777Z,95635.78
2023-02-27T10:30:36.159Z,95629.63
2023-02-27T10:33:35.272Z,95619.97
2023-02-27T10:36:33.057Z,95627.59
2023-02-27T10:39:21.417Z,95613.25
2023-02-27T10:42:09.569Z,95630.88
2023-02-27T10:44:56.124Z,95640.19
2023-02-27T10:47:42.909Z,95622.00
2023-02-27T10:50:32.203Z,95622.09
2023-02-27T10:53:23.302Z,95613.44
2023-02-27T10:56:17.148Z,95636.94
2023-02-27T10:59:06.139Z,95638.41
2023-02-27T11:01:58.095Z,95641.56
2023-02-27T11:04:53.856Z,95637.44
2023-02-27T11:07:40.050Z,95640.56
2023-02-27T11:10:28.379Z,95625.06
2023-02-27T11:13:22.254Z,95633.56
2023-02-27T11:16:18.779Z,95633.56
2023-02-27T11:19:24.858Z,95620.13
2023-02-27T11:22:15.400Z,95626.91
2023-02-27T11:25:21.077Z,95631.78
2023-02-27T11:28:25.293Z,95612.31
2023-02-27T11:31:22.700Z,95637.75
2023-02-27T11:34:37.434Z,95614.97
2023-02-27T11:37:23.392Z,95622.06
2023-02-27T11:40:09.386Z,95621.06
2023-02-27T11:42:59.174Z,95616.25
2023-02-27T11:46:21.436Z,95601.06
2023-02-27T11:49:21.560Z,95578.97
2023-02-27T11:52:25.890Z,95585.31
2023-02-27T11:55:16.043Z,95578.81
2023-02-27T11:58:06.595Z,95576.69
2023-02-27T12:01:01.884Z,95579.47
2023-02-27T12:03:55.713Z,95574.94
2023-02-27T12:06:47.242Z,95564.47
2023-02-27T12:09:38.086Z,95568.00
2023-02-27T12:12:42.038Z,95570.59
2023-02-27T12:15:34.444Z,95561.88
2023-02-27T12:18:23.960Z,95573.13
2023-02-27T12:21:28.539Z,95572.16
2023-02-27T12:24:21.268Z,95580.59
2023-02-27T12:27:21.728Z,95585.84
2023-02-27T12:30:16.941Z,95591.16
2023-02-27T12:33:13.594Z,95590.16
2023-02-27T12:36:02.114Z,95585.78
2023-02-27T12:38:48.724Z,95583.47
2023-02-27T12:41:48.041Z,95559.97
2023-02-27T12:44:33.936Z,95595.94
2023-02-27T12:47:39.756Z,95599.53
2023-02-27T12:50:26.525Z,95589.34
2023-02-27T12:53:27.594Z,95601.28
2023-02-27T12:56:17.353Z,95589.59
2023-02-27T12:59:09.522Z,95573.06
2023-02-27T13:02:23.185Z,95584.72
2023-02-27T13:05:29.982Z,95584.72
2023-02-27T13:08:50.562Z,95593.66
2023-02-27T13:12:01.384Z,95574.91
2023-02-27T13:15:06.871Z,95598.28
2023-02-27T13:18:05.410Z,95593.50
2023-02-27T13:20:57.354Z,95587.97
2023-02-27T13:23:58.603Z,95586.75
2023-02-27T13:26:48.787Z,95550.91
2023-02-27T13:29:35.002Z,95603.44
2023-02-27T13:32:45.758Z,95591.25
2023-02-27T13:36:27.184Z,95585.81
2023-02-27T13:39:39.459Z,95586.19
2023-02-27T13:42:30.216Z,95577.81
2023-02-27T13:45:47.293Z,95585.00
2023-02-27T13:48:41.329Z,95597.69
2023-02-27T13:51:37.428Z,95594.72
2023-02-27T13:54:27.413Z,95578.41
2023-02-27T13:57:22.566Z,95593.53
2023-02-27T14:00:23.262Z,95595.13
2023-02-27T14:03:29.960Z,95594.81
2023-02-27T14:06:16.039Z,95596.75
2023-02-27T14:09:14.318Z,95586.41
2023-02-27T14:12:02.344Z,95583.94
2023-02-27T14:14:50.411Z,95599.59
2023-02-27T14:17:36.497Z,95606.84
2023-02-27T14:20:31.204Z,95591.19
2023-02-27T14:23:17.251Z,95598.75
2023-02-27T14:26:16.409Z,95578.13
2023-02-27T14:29:02.648Z,95603.06
2023-02-27T14:31:49.550Z,95589.22
2023-02-27T14:34:36.396Z,95594.56
2023-02-27T14:37:25.175Z,95590.56
2023-02-27T14:40:31.371Z,95602.25
2023-02-27T14:43:27.553Z,95602.78
2023-02-27T14:46:25.194Z,95582.16
2023-02-27T14:49:20.735Z,95605.97
2023-02-27T14:52:29.863Z,95602.59
2023-02-27T14:55:28.054Z,95604.16
2023-02-27T14:58:13.938Z,95580.22
2023-02-27T15:01:04.323Z,95591.84
2023-02-27T15:03:53.646Z,95609.66
2023-02-27T15:06:45.396Z,95616.91
2023-02-27T15:09:44.721Z,95612.03
2023-02-27T15:12:31.512Z,95594.09
2023-02-27T15:15:19.579Z,95617.38
2023-02-27T15:18:13.222Z,95610.41
2023-02-27T15:20:59.849Z,95611.03
2023-02-27T15:23:54.997Z,95610.25
2023-02-27T15:26:41.835Z,95600.25
2023-02-27T15:29:58.378Z,95632.72
2023-02-27T15:32:44.772Z,95646.38
2023-02-27T15:35:36.234Z,95641.56
2023-02-27T15:38:33.747Z,95641.75
2023-02-27T15:41:20.122Z,95657.88
2023-02-27T15:44:06.331Z,95658.56
2023-02-27T15:46:52.991Z,95660.22
2023-02-27T15:49:39.109Z,95658.91
2023-02-27T15:52:27.036Z,95658.56
2023-02-27T15:55:15.920Z,95677.88
2023-02-27T15:58:04.081Z,95652.91
2023-02-27T16:00:52.968Z,95672.22
2023-02-27T16:03:45.793Z,95684.91
2023-02-27T16:06:35.513Z,95700.06
2023-02-27T16:09:33.475Z,95691.91
2023-02-27T16:12:31.325Z,95685.75
2023-02-27T16:15:30.382Z,95687.91
2023-02-27T16:18:16.361Z,95696.72
2023-02-27T16:21:11.610Z,95694.53
2023-02-27T16:24:18.367Z,95707.75
2023-02-27T16:27:04.426Z,95717.22
2023-02-27T16:29:51.613Z,95722.88
2023-02-27T16:32:44.114Z,95728.56
2023-02-27T16:35:30.271Z,95728.34
2023-02-27T16:38:17.259Z,95733.03
2023-02-27T16:41:03.556Z,95738.03
2023-02-27T16:43:50.690Z,95743.88
2023-02-27T16:46:36.518Z,95740.19
2023-02-27T16:49:28.194Z,95738.22
2023-02-27T16:52:14.256Z,95748.56
2023-02-27T16:55:00.042Z,95746.03
2023-02-27T16:57:45.944Z,95761.56
2023-02-27T17:00:34.008Z,95764.53
2023-02-27T17:03:20.052Z,95772.31
2023-02-27T17:06:07.904Z,95769.84
2023-02-27T17:08:53.678Z,95770.50
2023-02-27T17:11:39.504Z,95773.81
2023-02-27T17:14:25.162Z,95780.84
2023-02-27T17:17:11.608Z,95759.19
2023-02-27T17:19:57.919Z,95777.47
2023-02-27T17:22:44.961Z,95781.16
2023-02-27T17:25:31.126Z,95782.66
2023-02-27T17:28:16.880Z,95787.66
2023-02-27T17:31:10.911Z,95792.16
2023-02-27T17:33:57.004Z,95798.97
2023-02-27T17:36:43.392Z,95794.31
2023-02-27T17:39:29.439Z,95801.63
2023-02-27T17:42:18.472Z,95787.16
2023-02-27T17:45:06.494Z,95793.81
2023-02-27T17:47:53.588Z,95787.97
2023-02-27T17:50:40.240Z,95791.16
2023-02-27T17:53:26.076Z,95796.97
2023-02-27T17:56:13.076Z,95806.47
2023-02-27T17:58:58.916Z,95804.81
2023-02-27T18:01:44.978Z,95798.97
2023-02-27T18:04:34.604Z,95804.31
2023-02-27T18:07:20.747Z,95808.63
2023-02-27T18:10:09.162Z,95808.81
2023-02-27T18:12:55.354Z,95807.28
2023-02-27T18:15:41.682Z,95825.13
2023-02-27T18:18:27.821Z,95817.63
2023-02-27T18:21:17.084Z,95814.31
2023-02-27T18:24:03.192Z,95830.97
2023-02-27T18:26:49.363Z,95846.59
2023-02-27T18:29:36.841Z,95856.09
2023-02-27T18:32:22.951Z,95857.28
2023-02-27T18:35:09.493Z,95875.72
2023-02-27T18:37:55.449Z,95872.50
2023-02-27T18:40:42.802Z,95879.34
2023-02-27T18:43:28.702Z,95868.53
2023-02-27T18:46:15.037Z,95879.28
2023-02-27T18:49:01.287Z,95889.34
2023-02-27T18:51:47.544Z,95891.19
2023-02-27T18:54:33.634Z,95881.91
2023-02-27T18:57:19.452Z,95886.69
2023-02-27T19:00:07.056Z,95907.44
2023-02-27T19:02:53.341Z,95911.34
2023-02-27T19:05:41.560Z,95899.06
2023-02-27T19:08:30.439Z,95910.94
2023-02-27T19:11:33.119Z,95893.09
2023-02-27T19:14:19.320Z,95898.34
2023-02-27T19:17:05.578Z,95901.94
2023-02-27T19:19:53.585Z,95897.16
2023-02-27T19:22:40.000Z,95898.75
2023-02-27T19:25:26.477Z,95908.94
2023-02-27T19:28:14.720Z,95909.41
2023-02-27T19:31:06.234Z,95908.78
2023-02-27T19:33:52.455Z,95902.94
2023-02-27T19:36:40.218Z,95895.09
2023-02-27T19:39:26.371Z,95904.44
2023-02-27T19:42:12.392Z,95921.78
2023-02-27T19:44:58.231Z,95923.88
2023-02-27T19:47:44.477Z,95930.28
2023-02-27T19:50:30.684Z,95932.63
2023-02-27T19:53:16.701Z,95941.44
2023-02-27T19:56:05.375Z,95935.97
2023-02-27T19:58:51.971Z,95934.91
2023-02-27T20:01:39.129Z,95931.53
2023-02-27T20:04:25.361Z,95931.91
2023-02-27T20:07:12.279Z,95935.34
2023-02-27T20:09:58.584Z,95930.56
2023-02-27T20:12:44.759Z,95937.22
2023-02-27T20:15:30.654Z,95925.91
2023-02-27T20:18:16.506Z,95902.84
2023-02-27T20:21:05.974Z,95908.53
2023-02-27T20:23:52.145Z,95927.38
2023-02-27T20:26:41.828Z,95916.03
2023-02-27T20:29:28.035Z,95913.91
2023-02-27T20:32:14.339Z,95909.09
2023-02-27T20:35:00.665Z,95918.59
2023-02-27T20:37:46.507Z,95917.28
2023-02-27T20:40:33.555Z,95915.31
2023-02-27T20:43:19.518Z,95920.28
2023-02-27T20:46:06.658Z,95922.97
2023-02-27T20:48:52.650Z,95936.59
2023-02-27T20:51:39.813Z,95918.44
2023-02-27T20:54:25.943Z,95939.63
2023-02-27T20:57:11.939Z,95934.59
2023-02-27T20:59:57.721Z,95943.13
2023-02-27T21:02:44.655Z,95923.91
2023-02-27T21:05:31.140Z,95966.38
2023-02-27T21:08:17.679Z,95955.25
2023-02-27T21:11:15.146Z,95952.56
2023-02-27T21:14:08.224Z,95942.75
2023-02-27T21:16:53.898Z,95951.53
2023-02-27T21:19:40.053Z,95959.91
2023-02-27T21:22:26.298Z,95962.06
2023-02-27T21:25:12.425Z,95954.59
2023-02-27T21:28:02.282Z,95965.72
2023-02-27T21:30:48.354Z,95967.31
2023-02-27T21:33:34.761Z,95979.03
2023-02-27T21:36:29.675Z,95971.34
2023-02-27T21:39:26.259Z,95968.31
2023-02-27T21:42:13.033Z,95967.19
2023-02-27T21:44:59.492Z,95963.22
2023-02-27T21:47:45.995Z,95956.72
2023-02-27T21:50:34.165Z,95966.25
2023-02-27T21:53:20.156Z,95981.88
2023-02-27T21:56:08.082Z,95976.56
2023-02-27T21:58:54.286Z,95975.09
2023-02-27T22:01:40.576Z,95974.59
2023-02-27T22:04:26.758Z,95970.75
2023-02-27T22:07:12.757Z,95961.41
2023-02-27T22:09:58.534Z,95985.72
2023-02-27T22:12:44.850Z,95960.91
2023-02-27T22:15:30.887Z,95959.75
2023-02-27T22:18:16.636Z,95968.44
2023-02-27T22:21:03.427Z,95958.41
2023-02-27T22:23:50.214Z,95973.59
2023-02-27T22:26:36.452Z,95986.59
2023-02-27T22:29:22.670Z,95991.91
2023-02-27T22:32:12.535Z,96001.34
2023-02-27T22:34:59.514Z,96019.47
2023-02-27T22:37:45.506Z,96014.53
2023-02-27T22:40:33.827Z,96013.09
2023-02-27T22:43:19.653Z,96027.78
2023-02-27T22:46:09.801Z,96027.47
2023-02-27T22:48:57.099Z,96017.28
2023-02-27T22:51:43.353Z,96025.63
2023-02-27T22:54:29.447Z,96015.00
2023-02-27T22:57:16.055Z,96008.00
2023-02-27T23:00:01.984Z,96005.38
2023-02-27T23:02:47.762Z,96009.88
2023-02-27T23:05:33.698Z,96006.53
2023-02-27T23:08:19.394Z,96001.03
2023-02-27T23:11:13.316Z,96000.88
2023-02-27T23:14:00.536Z,96011.69
2023-02-27T23:16:47.359Z,96006.19
2023-02-27T23:19:34.246Z,96007.00
2023-02-27T23:22:20.318Z,95987.66
2023-02-27T23:25:07.772Z,96000.50
2023-02-27T23:27:53.441Z,96000.84
2023-02-27T23:30:39.353Z,95986.66
2023-02-27T23:33:27.090Z,95986.13
2023-02-27T23:36:15.411Z,96003.81
2023-02-27T23:39:03.079Z,96020.25
2023-02-27T23:41:49.513Z,95992.72
2023-02-27T23:44:35.389Z,96012.56
2023-02-27T23:47:39.722Z,96016.38
2023-02-27T23:50:28.566Z,96032.44
2023-02-27T23:53:14.982Z,96018.00
2023-02-27T23:56:01.095Z,96032.44
2023-02-27T23:58:47.537Z,96033.03
